Latest Weather Observations for Sydney Airport

IDN60801

Issued at 10:13 pm EST Friday 8 May 2026 (issued every 10 minutes, with the page automatically refreshed every 10 minutes)

About weather observations | Map of weather stations | Latest weather observations for NSW | Other Formats
Station Details ID: 066037 Name: SYDNEY AIRPORT AMO Lat: -33.95 Lon: 151.17 Height: 6.0 m
Data from the previous 72 hours. | See also: Recent months at Sydney Airport
Date/Time
EST
Temp
°C
App
Temp
°C
Dew
Point
°C
Rel
Hum
%
Delta-T
°C
Wind Press
QNH
hPa
Press
MSL
hPa
Rain since
9am
mm
Dir  Spd
km/h
Gust
km/h
Spd
kts
Gust
kts
08/10:00pm 15.8 9.7 6.5 54 4.5 WSW 28 35 15 19 1021.7 1021.7 0.0
08/09:30pm 15.9 9.0 6.3 53 4.7 WSW 32 41 17 22 1021.5 1021.5 0.0
08/09:00pm 16.0 8.9 6.4 53 4.7 WSW 33 44 18 24 1021.3 1021.3 0.0
08/08:30pm 15.9 8.8 6.6 54 4.5 WSW 33 41 18 22 1020.9 1020.9 0.0
08/08:00pm 15.9 9.4 6.6 54 4.5 WSW 30 39 16 21 1020.7 1020.7 0.0
08/07:30pm 16.0 9.5 6.4 53 4.7 WSW 30 39 16 21 1020.4 1020.4 0.0
08/07:00pm 16.1 9.0 6.3 52 4.8 WSW 33 44 18 24 1020.0 1020.0 0.0
08/06:30pm 16.7 9.1 5.9 49 5.2 WSW 35 43 19 23 1019.5 1019.5 0.0
08/06:00pm 17.1 10.0 5.7 47 5.5 W 32 37 17 20 1019.0 1019.0 0.0
08/05:30pm 17.4 10.2 5.7 46 5.7 WSW 33 41 18 22 1018.6 1018.6 0.0
08/05:00pm 18.3 11.8 4.8 41 6.5 WSW 28 35 15 19 1018.0 1018.0 0.0
08/04:30pm 19.3 12.8 4.6 38 7.1 W 28 35 15 19 1017.4 1017.4 0.0
08/04:00pm 19.8 12.3 3.5 34 7.7 WSW 32 37 17 20 1016.7 1016.7 0.0
08/03:30pm 20.4 14.1 3.6 33 8.0 WSW 26 35 14 19 1016.5 1016.5 0.0
08/03:00pm 20.2 12.6 3.9 34 7.8 W 33 43 18 23 1016.0 1016.0 0.0
08/02:30pm 21.0 13.5 3.7 32 8.3 W 32 41 17 22 1016.1 1016.1 0.0
08/02:00pm 20.2 13.1 3.4 33 7.9 W 30 37 16 20 1015.9 1015.9 0.0
08/01:30pm 20.2 12.8 3.9 34 7.8 W 32 43 17 23 1015.9 1015.9 0.0
08/01:00pm 20.2 11.4 3.4 33 7.9 W 39 48 21 26 1016.2 1016.2 0.0
08/12:30pm 20.3 13.0 4.4 35 7.7 W 32 41 17 22 1016.5 1016.5 0.0
08/12:00pm 19.5 12.2 4.4 37 7.2 W 32 43 17 23 1017.1 1017.1 0.0
08/11:30am 18.3 10.1 4.5 40 6.6 W 37 48 20 26 1017.3 1017.3 0.0
08/11:00am 18.6 10.8 4.8 40 6.6 W 35 43 19 23 1017.7 1017.7 0.0
08/10:30am 17.7 9.8 4.3 41 6.3 W 35 48 19 26 1018.1 1018.1 0.0
08/10:12am 16.9 9.9 3.9 42 6.1 W 30 50 16 27 1018.2 1018.2 0.0
08/10:00am 16.5 9.9 4.2 44 5.7 W 28 37 15 20 1018.4 1018.4 0.0
08/09:30am 15.7 9.4 3.8 45 5.5 WNW 26 37 14 20 1018.4 1018.4 0.0
08/09:00am 14.5 7.8 3.6 48 4.9 WNW 28 37 15 20 1018.5 1018.5 0.0
08/08:30am 13.8 8.6 3.3 49 4.7 NW 20 26 11 14 1018.6 1018.6 0.0
08/08:00am 12.6 7.2 2.7 51 4.3 NW 20 28 11 15 1018.4 1018.4 0.0
08/07:30am 11.3 6.1 2.3 54 3.9 NW 19 26 10 14 1018.2 1018.2 0.0
08/07:00am 10.5 5.3 2.4 57 3.4 NNW 19 26 10 14 1018.1 1018.1 0.0
08/06:30am 10.4 5.0 2.5 58 3.4 NW 20 26 11 14 1018.2 1018.2 0.0
08/06:00am 10.2 4.8 2.6 59 3.2 WNW 20 28 11 15 1018.1 1018.1 0.0
08/05:30am 10.2 5.0 2.3 58 3.4 WNW 19 26 10 14 1017.9 1017.9 0.0
08/05:00am 10.4 5.5 2.3 57 3.4 WNW 17 26 9 14 1017.9 1017.9 0.0
08/04:30am 10.5 4.3 2.1 56 3.6 W 24 32 13 17 1018.0 1018.0 0.0
08/04:00am 10.2 4.4 2.1 57 3.4 W 22 28 12 15 1017.7 1017.7 0.0
08/03:30am 9.9 4.0 2.0 58 3.3 W 22 28 12 15 1018.0 1018.0 0.0
08/03:00am 10.0 3.8 1.9 57 3.4 W 24 33 13 18 1018.3 1018.3 0.0
08/02:30am 9.7 3.8 1.4 56 3.4 W 22 30 12 16 1018.6 1018.6 0.0
08/02:00am 9.7 4.1 1.1 55 3.5 WSW 20 28 11 15 1018.7 1018.7 0.0
08/01:30am 9.6 5.2 0.2 52 3.8 W 13 20 7 11 1019.2 1019.2 0.0
08/01:00am 9.9 4.2 0.5 52 3.8 W 20 28 11 15 1019.3 1019.3 0.0
08/12:30am 9.7 3.2 0.3 52 3.8 WSW 24 30 13 16 1019.5 1019.5 0.0
08/12:00am 9.7 4.2 0.9 54 3.6 W 19 26 10 14 1019.5 1019.5 0.0
 
Date/Time
EST
Temp
°C
App
Temp
°C
Dew
Point
°C
Rel
Hum
%
Delta-T
°C
Wind Press
QNH
hPa
Press
MSL
hPa
Rain since
9am
mm
Dir  Spd
km/h
Gust
km/h
Spd
kts
Gust
kts
07/11:30pm 10.6 5.4 0.1 48 4.3 WNW 17 19 9 10 1019.6 1019.6 0.0
07/11:00pm 10.6 2.9 0.1 48 4.2 W 30 37 16 20 1019.2 1019.2 0.0
07/10:30pm 11.0 4.1 0.1 47 4.4 W 26 35 14 19 1019.4 1019.4 0.0
07/10:00pm 11.2 3.9 -0.3 45 4.6 W 28 33 15 18 1019.4 1019.4 0.0
07/09:30pm 11.6 4.2 -0.5 43 4.9 W 28 39 15 21 1019.4 1019.4 0.0
07/09:00pm 11.6 3.8 -0.5 43 4.9 W 30 43 16 23 1019.2 1019.2 0.0
07/08:30pm 11.8 4.4 -0.7 42 5.0 W 28 35 15 19 1018.9 1018.9 0.0
07/08:00pm 12.0 4.1 -1.2 40 5.2 W 30 41 16 22 1018.8 1018.8 0.0
07/07:30pm 12.4 3.6 -1.5 38 5.5 W 35 44 19 24 1018.3 1018.3 0.0
07/07:00pm 12.6 4.1 -1.7 37 5.7 W 33 43 18 23 1018.1 1018.1 0.0
07/06:30pm 13.1 3.5 -1.6 36 5.9 W 39 56 21 30 1017.6 1017.6 0.0
07/06:00pm 13.3 4.8 -1.8 35 6.0 W 33 52 18 28 1017.2 1017.2 0.0
07/05:30pm 13.8 4.9 -1.8 34 6.3 W 35 56 19 30 1016.4 1016.4 0.0
07/05:11pm 14.1 4.8 -1.9 33 6.4 W 37 56 20 30 1016.3 1016.3 0.0
07/05:00pm 14.1 4.4 -2.3 32 6.5 W 39 54 21 29 1016.2 1016.2 0.0
07/04:30pm 14.8 5.9 -2.1 31 6.8 W 35 52 19 28 1015.8 1015.8 0.0
07/04:08pm 15.4 4.7 -2.5 29 7.2 W 44 63 24 34 1015.8 1015.8 0.0
07/04:00pm 15.6 5.1 -2.8 28 7.3 W 43 59 23 32 1015.7 1015.7 0.0
07/03:34pm 16.4 7.4 -2.6 27 7.7 WSW 35 54 19 29 1015.2 1015.2 0.0
07/03:30pm 16.4 6.6 -3.1 26 7.8 WSW 39 50 21 27 1015.1 1015.1 0.0
07/03:00pm 16.5 7.2 -2.0 28 7.6 WSW 37 50 20 27 1014.9 1014.9 0.0
07/02:30pm 16.5 5.9 -3.0 26 7.8 SW 43 54 23 29 1014.8 1014.8 0.0
07/02:15pm 17.1 6.9 -3.6 24 8.3 WSW 41 59 22 32 1014.7 1014.7 0.0
07/02:11pm 16.8 6.6 -3.3 25 8.0 W 41 59 22 32 1014.5 1014.5 0.0
07/02:00pm 16.6 5.7 -4.0 24 8.1 W 44 57 24 31 1014.5 1014.5 0.0
07/01:30pm 17.8 7.6 -3.6 23 8.6 W 41 61 22 33 1014.1 1014.1 0.0
07/01:04pm 17.3 6.9 -4.6 22 8.6 W 41 59 22 32 1014.1 1014.1 0.0
07/01:00pm 17.2 6.8 -4.7 22 8.5 W 41 56 22 30 1014.1 1014.1 0.0
07/12:55pm 16.6 6.9 -5.2 22 8.4 W 37 56 20 30 1014.2 1014.2 0.0
07/12:30pm 17.4 7.8 -4.5 22 8.6 W 37 52 20 28 1014.2 1014.2 0.0
07/12:06pm 17.3 7.0 -4.0 23 8.4 WSW 41 59 22 32 1014.4 1014.4 0.0
07/12:00pm 17.3 6.6 -2.9 25 8.2 W 44 59 24 32 1014.5 1014.5 0.0
07/11:30am 16.1 7.0 -0.6 32 7.0 WSW 37 48 20 26 1014.4 1014.4 0.0
07/11:00am 15.2 4.6 0.6 37 6.2 WSW 46 59 25 32 1014.7 1014.7 0.0
07/10:36am 16.4 7.7 6.2 51 5.0 WSW 41 59 22 32 1014.5 1014.5 0.0
07/10:30am 16.9 9.7 5.8 48 5.4 W 33 50 18 27 1014.3 1014.3 0.0
07/10:26am 17.2 11.5 6.7 50 5.2 W 26 50 14 27 1014.2 1014.2 0.0
07/10:00am 17.5 13.3 5.8 46 5.7 W 17 28 9 15 1014.1 1014.1 0.0
07/09:30am 18.3 14.1 5.5 43 6.2 NW 17 22 9 12 1014.1 1014.1 0.0
07/09:00am 17.3 13.9 5.9 47 5.5 NW 13 17 7 9 1014.2 1014.2 0.0
07/08:30am 16.7 12.9 5.6 48 5.3 NW 15 19 8 10 1014.2 1014.2 0.0
07/08:00am 15.6 11.5 6.1 53 4.6 NW 17 19 9 10 1014.0 1014.0 0.0
07/07:30am 15.0 12.0 5.8 54 4.4 NW 11 17 6 9 1013.9 1013.9 0.0
07/07:00am 14.0 10.6 6.1 59 3.8 NW 13 17 7 9 1013.7 1013.7 0.0
07/06:30am 12.0 7.8 5.6 65 3.0 W 17 33 9 18 1013.6 1013.6 0.0
07/06:00am 13.0 9.6 5.9 62 3.3 W 13 17 7 9 1013.3 1013.3 0.0
07/05:30am 13.2 7.0 6.3 63 3.3 WSW 28 33 15 18 1013.8 1013.8 0.0
07/05:00am 12.5 7.2 7.0 69 2.6 WSW 24 30 13 16 1013.4 1013.4 0.0
07/04:39am 12.4 7.4 7.9 74 2.2 WSW 24 30 13 16 1013.2 1013.2 0.0
07/04:30am 12.0 7.7 7.9 76 2.0 WSW 20 26 11 14 1013.2 1013.2 0.0
07/04:00am 12.5 9.5 9.1 80 1.7 W 15 17 8 9 1013.2 1013.2 0.0
07/03:30am 12.6 9.7 9.8 83 1.4 WSW 15 17 8 9 1013.3 1013.3 0.0
07/03:00am 12.6 10.2 10.0 84 1.3 WNW 13 17 7 9 1013.5 1013.5 0.0
07/02:30am 13.2 10.9 10.6 84 1.4 WNW 13 19 7 10 1013.7 1013.7 0.0
07/02:00am 13.8 11.8 11.5 86 1.2 WNW 13 17 7 9 1014.1 1014.1 0.0
07/01:30am 14.5 12.3 12.0 85 1.4 NW 15 17 8 9 1014.2 1014.2 0.0
07/01:00am 15.1 13.8 12.6 85 1.4 NW 11 13 6 7 1014.4 1014.4 0.0
07/12:30am 15.6 14.4 12.7 83 1.6 WNW 11 15 6 8 1014.5 1014.5 0.0
07/12:00am 16.2 15.1 13.1 82 1.7 NNW 11 13 6 7 1014.6 1014.6 0.0
 
Date/Time
EST
Temp
°C
App
Temp
°C
Dew
Point
°C
Rel
Hum
%
Delta-T
°C
Wind Press
QNH
hPa
Press
MSL
hPa
Rain since
9am
mm
Dir  Spd
km/h
Gust
km/h
Spd
kts
Gust
kts
06/11:30pm 16.7 15.4 13.6 82 1.7 NNW 13 13 7 7 1014.6 1014.6 0.0
06/11:15pm 16.7 15.4 13.8 83 1.6 NNW 13 15 7 8 1014.7 1014.7 0.0
06/11:14pm 16.6 15.3 13.7 83 1.6 NNW 13 15 7 8 1014.7 1014.7 0.0
06/11:00pm 16.9 15.6 13.8 82 1.8 NW 13 15 7 8 1014.9 1014.9 0.0
06/10:30pm 16.9 15.6 13.8 82 1.8 WNW 13 19 7 10 1015.3 1015.3 0.0
06/10:00pm 17.1 15.5 13.8 81 1.9 WNW 15 19 8 10 1015.8 1015.8 0.0
06/09:30pm 18.1 17.7 14.2 78 2.2 NNW 9 13 5 7 1015.8 1015.8 0.0
06/09:00pm 18.0 17.3 14.3 79 2.1 NNW 11 13 6 7 1016.0 1016.0 0.0
06/08:30pm 18.1 17.7 14.2 78 2.2 NNW 9 11 5 6 1016.1 1016.1 0.0
06/08:00pm 18.9 18.9 14.2 74 2.7 NNE 7 9 4 5 1016.2 1016.2 0.0
06/07:30pm 19.2 19.2 14.2 73 2.9 NNE 7 9 4 5 1016.1 1016.1 0.0
06/07:00pm 19.0 19.0 14.3 74 2.7 NE 7 9 4 5 1016.2 1016.2 0.0
06/06:30pm 18.8 18.3 13.9 73 2.8 NE 9 11 5 6 1016.2 1016.2 0.0
06/06:00pm 18.9 18.1 14.0 73 2.8 NE 11 13 6 7 1016.1 1016.1 0.0
06/05:30pm 19.0 17.7 13.6 71 3.1 ENE 13 15 7 8 1016.1 1016.1 0.0
06/05:00pm 19.6 17.5 13.5 68 3.5 ENE 17 20 9 11 1016.1 1016.1 0.0
06/04:30pm 20.5 19.2 13.7 65 3.9 ENE 13 17 7 9 1016.3 1016.3 0.0
06/04:00pm 20.5 19.5 13.5 64 4.0 ENE 11 17 6 9 1016.5 1016.5 0.0
06/03:30pm 20.4 19.0 13.4 64 4.0 SE 13 15 7 8 1016.6 1016.6 0.0
06/03:00pm 21.3 19.6 13.5 61 4.5 SE 15 17 8 9 1016.9 1016.9 0.0
06/02:30pm 20.5 19.0 13.0 62 4.3 SE 13 17 7 9 1017.1 1017.1 0.0
06/02:00pm 21.4 20.0 13.3 60 4.6 SE 13 17 7 9 1017.4 1017.4 0.0
06/01:30pm 21.1 20.5 14.5 66 3.9 SSE 11 15 6 8 1017.7 1017.7 0.0
06/01:00pm 20.3 19.0 13.7 66 3.8 SSE 13 19 7 10 1018.2 1018.2 0.0
06/12:30pm 21.3 19.9 14.5 65 4.0 S 15 19 8 10 1018.7 1018.7 0.0
06/12:00pm 20.6 19.1 11.8 57 4.9 SSW 11 15 6 8 1019.3 1019.3 0.0
06/11:30am 20.6 19.1 10.7 53 5.4 SW 9 17 5 9 1019.7 1019.7 0.0
06/11:00am 20.6 19.0 10.1 51 5.6 WSW 9 11 5 6 1020.2 1020.2 0.0
06/10:30am 21.6 19.4 9.5 46 6.5 NW 11 19 6 10 1020.5 1020.5 0.0
06/10:00am 19.6 17.5 9.8 53 5.2 WNW 11 19 6 10 1020.7 1020.7 0.0
06/09:30am 18.0 15.6 8.8 55 4.8 WNW 11 15 6 8 1020.9 1020.9 0.0
06/09:00am 17.3 14.8 8.4 56 4.5 NW 11 17 6 9 1020.9 1020.9 0.2
06/08:30am 15.9 12.7 8.6 62 3.7 WNW 15 20 8 11 1021.0 1021.0 0.2
06/08:00am 14.3 11.4 8.0 66 3.1 NW 13 17 7 9 1021.0 1021.0 0.2
06/07:30am 13.4 10.5 8.3 71 2.5 NW 13 15 7 8 1020.9 1020.9 0.2
06/07:00am 12.9 9.9 7.6 70 2.6 NW 13 17 7 9 1020.8 1020.8 0.2
06/06:30am 12.9 9.6 8.0 72 2.4 NW 15 19 8 10 1020.7 1020.7 0.2
06/06:00am 12.4 9.0 7.7 73 2.3 NW 15 19 8 10 1020.4 1020.4 0.2
06/05:30am 12.7 9.3 7.6 71 2.5 NW 15 17 8 9 1020.4 1020.4 0.2
06/05:00am 12.7 9.0 7.8 72 2.4 NW 17 19 9 10 1020.3 1020.3 0.2
06/04:30am 12.9 9.6 8.0 72 2.4 NW 15 19 8 10 1020.4 1020.4 0.2
06/04:00am 12.8 9.5 7.9 72 2.4 NW 15 19 8 10 1020.3 1020.3 0.2
06/03:30am 12.9 10.4 8.0 72 2.4 NW 11 13 6 7 1020.2 1020.2 0.2
06/03:00am 13.0 10.0 7.9 71 2.5 NW 13 15 7 8 1020.4 1020.4 0.2
06/02:30am 13.4 10.4 7.8 69 2.8 NW 13 17 7 9 1020.5 1020.5 0.2
06/02:00am 14.0 10.7 8.2 68 2.9 NW 15 17 8 9 1020.6 1020.6 0.2
06/01:30am 14.1 11.2 8.1 67 3.0 NW 13 13 7 7 1020.9 1020.9 0.2
06/01:00am 14.4 11.6 8.4 67 3.0 NW 13 15 7 8 1021.0 1021.0 0.2
06/12:30am 15.0 12.6 8.7 66 3.2 N 11 13 6 7 1021.2 1021.2 0.2
06/12:00am 15.9 14.0 8.9 63 3.6 W 9 13 5 7 1021.2 1021.2 0.2
 
Date/Time
EST
Temp
°C
App
Temp
°C
Dew
Point
°C
Rel
Hum
%
Delta-T
°C
Wind Press
QNH
hPa
Press
MSL
hPa
Rain since
9am
mm
Dir  Spd
km/h
Gust
km/h
Spd
kts
Gust
kts
05/11:30pm 16.1 12.7 7.8 58 4.2 WSW 15 19 8 10 1021.2 1021.2 0.2
05/11:00pm 15.9 12.0 8.6 62 3.7 SW 19 22 10 12 1021.1 1021.1 0.2
05/10:30pm 15.8 13.4 9.9 68 3.1 WSW 13 17 7 9 1021.2 1021.2 0.2

Other formats

Comma delimited format used in spreadsheet applications
http://www.bom.gov.au/fwo/IDN60801/IDN60801.94767.axf

JavaScript Object Notation format (JSON) in row-major order
http://www.bom.gov.au/fwo/IDN60801/IDN60801.94767.json

Data quality

Most of these data are generated automatically and are frequently updated. Quality checks on data are not normally performed. It is possible for incorrect values to appear. Refer to information at About Latest Weather Observations and please check the disclaimer before using these data.